Time;durP1;ratioP1;P1;durP2;ratioP2;P2;SDS_P1;SDS_P2;PMS_P1;PMS_P2;Temp;Humidity;BMP_temperature;BMP_pressure;BME280_temperature;BME280_humidity;BME280_pressure;Samples;Min_cycle;Max_cycle;Signal;HPM_P1;HPM_P2
2020/12/14 00:00:51;;;;;;;4.07;1.38;;;7.00;89.30;;;;;;2047788;28;20040;-81
2020/12/14 00:01:52;;;;;;;3.53;1.20;;;6.90;89.20;;;;;;2064050;28;20050;-81
2020/12/14 00:02:53;;;;;;;2.45;1.00;;;7.00;89.20;;;;;;2065919;28;20038;-81
2020/12/14 00:03:53;;;;;;;6.78;1.60;;;7.00;89.20;;;;;;2065913;28;20110;-81
2020/12/14 00:04:55;;;;;;;2.63;1.20;;;7.00;89.10;;;;;;2056185;28;20038;-82
2020/12/14 00:05:55;;;;;;;4.07;1.23;;;7.00;89.10;;;;;;2049260;28;20031;-82
2020/12/14 00:06:56;;;;;;;2.83;0.95;;;7.00;89.10;;;;;;2052902;28;20046;-81
2020/12/14 00:07:56;;;;;;;2.70;1.15;;;7.00;89.10;;;;;;2046524;28;20031;-81
2020/12/14 00:08:57;;;;;;;2.88;1.20;;;7.00;89.10;;;;;;2031597;29;20858;-81
2020/12/14 00:09:59;;;;;;;3.47;1.10;;;7.00;89.00;;;;;;2040260;28;20034;-81
2020/12/14 00:10:59;;;;;;;4.50;1.38;;;7.00;89.00;;;;;;2047707;29;20043;-81
2020/12/14 00:12:01;;;;;;;3.22;1.20;;;7.00;88.90;;;;;;2047333;29;20501;-81
2020/12/14 00:13:02;;;;;;;3.22;1.17;;;7.00;88.80;;;;;;2047650;28;20046;-81
2020/12/14 00:14:03;;;;;;;4.97;1.30;;;7.00;88.80;;;;;;2041147;28;20056;-81
2020/12/14 00:15:05;;;;;;;3.88;1.38;;;7.10;88.80;;;;;;2048482;28;20039;-81
2020/12/14 00:16:09;;;;;;;3.83;1.30;;;7.10;88.90;;;;;;2046634;29;20023;-80
2020/12/14 00:17:09;;;;;;;2.97;1.25;;;7.10;88.80;;;;;;2033500;29;20429;-80
2020/12/14 00:18:10;;;;;;;3.90;1.40;;;7.10;88.80;;;;;;2040013;29;20035;-81
2020/12/14 00:19:10;;;;;;;2.95;1.10;;;7.10;88.70;;;;;;2054211;28;20073;-80
2020/12/14 00:20:12;;;;;;;4.45;1.50;;;7.10;89.30;;;;;;2048966;28;20501;-81
2020/12/14 00:21:16;;;;;;;4.00;1.25;;;7.10;88.80;;;;;;2048822;28;20123;-81
2020/12/14 00:22:17;;;;;;;3.67;1.20;;;7.10;88.70;;;;;;2049081;28;20508;-80
2020/12/14 00:23:18;;;;;;;3.47;1.27;;;7.10;88.70;;;;;;2050861;28;20035;-80
2020/12/14 00:24:19;;;;;;;2.67;1.00;;;7.10;88.60;;;;;;2042098;28;20028;-80
2020/12/14 00:25:19;;;;;;;2.92;0.90;;;7.10;88.60;;;;;;2051782;28;20077;-80
2020/12/14 00:26:20;;;;;;;2.95;1.17;;;7.20;88.70;;;;;;2054774;28;20101;-81
2020/12/14 00:27:21;;;;;;;2.90;1.00;;;7.10;88.70;;;;;;2050625;28;20511;-81
2020/12/14 00:28:22;;;;;;;3.80;1.30;;;7.10;88.60;;;;;;2048167;28;20146;-81
2020/12/14 00:29:22;;;;;;;2.47;1.00;;;7.20;88.70;;;;;;2049817;28;20038;-80
2020/12/14 00:30:23;;;;;;;3.88;1.10;;;7.20;88.60;;;;;;2049292;28;20549;-81
2020/12/14 00:31:23;;;;;;;3.53;1.15;;;7.20;88.60;;;;;;2055691;28;20035;-80
2020/12/14 00:32:24;;;;;;;3.25;1.02;;;7.20;88.60;;;;;;2045987;29;20027;-81
2020/12/14 00:33:25;;;;;;;3.30;1.10;;;7.20;88.60;;;;;;2049939;28;20058;-81
2020/12/14 00:34:25;;;;;;;2.85;1.23;;;7.20;89.10;;;;;;2056831;28;20086;-82
2020/12/14 00:35:26;;;;;;;3.80;1.30;;;7.20;88.50;;;;;;2054732;28;20066;-81
2020/12/14 00:36:27;;;;;;;7.20;1.33;;;7.20;88.50;;;;;;2045366;29;20473;-81
2020/12/14 00:37:27;;;;;;;4.40;0.85;;;7.20;88.50;;;;;;2038326;28;20046;-81
2020/12/14 00:38:28;;;;;;;3.40;1.10;;;7.20;88.50;;;;;;2031846;29;20108;-81
2020/12/14 00:39:28;;;;;;;2.50;0.70;;;7.20;88.50;;;;;;2040343;29;20443;-81
2020/12/14 00:40:29;;;;;;;2.97;1.02;;;7.20;88.40;;;;;;2049024;28;20037;-81
2020/12/14 00:41:30;;;;;;;2.42;1.20;;;7.20;88.40;;;;;;2047418;28;20520;-81
2020/12/14 00:42:31;;;;;;;3.08;1.10;;;7.20;88.40;;;;;;2038434;29;20032;-81
2020/12/14 00:43:32;;;;;;;4.30;1.00;;;7.20;88.40;;;;;;2031150;29;20043;-81
2020/12/14 00:44:33;;;;;;;2.03;0.85;;;7.20;88.40;;;;;;2034179;29;20459;-80
2020/12/14 00:45:33;;;;;;;3.58;1.20;;;7.20;88.40;;;;;;2047969;28;20039;-81
2020/12/14 00:46:34;;;;;;;3.42;1.13;;;7.20;88.40;;;;;;2053319;28;20629;-81
2020/12/14 00:47:34;;;;;;;3.00;1.02;;;7.20;88.30;;;;;;2056258;28;20066;-81
2020/12/14 00:48:35;;;;;;;3.30;1.13;;;7.20;88.10;;;;;;2056182;28;20026;-82
2020/12/14 00:49:36;;;;;;;3.50;1.25;;;7.20;88.20;;;;;;2055924;28;20041;-81
2020/12/14 00:50:36;;;;;;;2.00;0.82;;;7.20;88.20;;;;;;2046585;29;20522;-81
2020/12/14 00:51:37;;;;;;;5.20;1.15;;;7.20;88.20;;;;;;2046723;29;20055;-81
2020/12/14 00:52:37;;;;;;;3.45;1.25;;;7.20;88.10;;;;;;2056047;28;20089;-81
2020/12/14 00:53:39;;;;;;;4.00;1.20;;;7.30;88.20;;;;;;2053166;28;20425;-81
2020/12/14 00:54:39;;;;;;;5.07;1.10;;;7.20;88.10;;;;;;2048500;28;20062;-81
2020/12/14 00:55:40;;;;;;;2.78;1.00;;;7.30;88.00;;;;;;2054249;28;20152;-81
2020/12/14 00:56:41;;;;;;;3.17;0.90;;;7.30;88.10;;;;;;2045985;29;20023;-81
2020/12/14 00:57:43;;;;;;;1.88;0.73;;;7.30;88.10;;;;;;2042268;28;20528;-81
2020/12/14 00:58:44;;;;;;;2.80;0.85;;;7.20;88.00;;;;;;2048292;28;20165;-81
2020/12/14 00:59:44;;;;;;;4.47;1.10;;;7.30;88.00;;;;;;2042089;29;20473;-81
2020/12/14 01:00:45;;;;;;;4.50;1.30;;;7.30;88.00;;;;;;2032485;29;20423;-81
2020/12/14 01:01:51;;;;;;;3.63;1.08;;;7.30;88.00;;;;;;2031737;29;20526;-82
2020/12/14 01:02:51;;;;;;;3.50;0.93;;;7.30;88.00;;;;;;2046341;28;20035;-81
2020/12/14 01:03:52;;;;;;;6.50;1.55;;;7.30;88.00;;;;;;2044984;28;20614;-81
2020/12/14 01:04:53;;;;;;;4.25;1.00;;;7.30;87.90;;;;;;2038313;29;20151;-81
2020/12/14 01:05:53;;;;;;;3.63;1.10;;;7.30;87.90;;;;;;2044583;28;20070;-81
2020/12/14 01:06:55;;;;;;;4.57;1.20;;;7.30;88.00;;;;;;2054803;28;20038;-81
2020/12/14 01:07:55;;;;;;;2.65;0.80;;;7.30;87.90;;;;;;2052894;28;20148;-81
2020/12/14 01:08:56;;;;;;;4.72;1.20;;;7.30;87.90;;;;;;2043155;28;20558;-81
2020/12/14 01:09:57;;;;;;;3.60;1.10;;;7.30;87.90;;;;;;2047212;28;20031;-81
2020/12/14 01:10:57;;;;;;;4.15;1.20;;;7.30;87.80;;;;;;2051033;28;20520;-81
2020/12/14 01:12:02;;;;;;;4.10;1.15;;;7.40;87.80;;;;;;2046874;28;20058;-82
2020/12/14 01:13:02;;;;;;;6.10;1.30;;;7.40;88.40;;;;;;2055303;28;20026;-81
2020/12/14 01:14:03;;;;;;;3.15;0.98;;;7.40;87.80;;;;;;2051891;28;20058;-81
2020/12/14 01:15:07;;;;;;;3.17;1.00;;;7.40;87.80;;;;;;2050866;28;20066;-81
2020/12/14 01:16:08;;;;;;;3.20;1.00;;;7.40;87.80;;;;;;2056089;28;20050;-81
2020/12/14 01:17:10;;;;;;;2.80;0.93;;;7.40;87.80;;;;;;2044370;28;20082;-82
2020/12/14 01:18:11;;;;;;;4.57;1.30;;;7.40;87.80;;;;;;2046434;28;20054;-81
2020/12/14 01:19:11;;;;;;;2.75;0.80;;;7.40;87.80;;;;;;2055806;28;20555;-81
2020/12/14 01:20:14;;;;;;;2.85;1.00;;;7.40;87.70;;;;;;2053591;28;20047;-81
2020/12/14 01:21:19;;;;;;;4.18;1.10;;;7.40;87.80;;;;;;2055405;28;20023;-80
2020/12/14 01:22:19;;;;;;;3.88;0.90;;;7.40;87.70;;;;;;2053560;28;20635;-81
2020/12/14 01:23:20;;;;;;;3.15;1.08;;;7.40;87.70;;;;;;2056187;28;20117;-81
2020/12/14 01:24:21;;;;;;;3.80;1.00;;;7.40;88.40;;;;;;2048347;28;20031;-81
2020/12/14 01:25:21;;;;;;;5.43;1.13;;;7.40;87.70;;;;;;2049095;28;20091;-80
2020/12/14 01:26:22;;;;;;;2.15;0.88;;;7.40;87.70;;;;;;2053971;28;20334;-81
2020/12/14 01:27:22;;;;;;;3.67;0.82;;;7.40;87.80;;;;;;2053588;28;20033;-81
2020/12/14 01:28:23;;;;;;;3.33;0.73;;;7.40;87.70;;;;;;2046152;28;20050;-81
2020/12/14 01:29:24;;;;;;;2.28;0.77;;;7.40;87.70;;;;;;2039937;29;20064;-80
2020/12/14 01:30:24;;;;;;;2.33;0.80;;;7.40;87.70;;;;;;2053785;28;20062;-81
2020/12/14 01:31:27;;;;;;;2.85;0.88;;;7.40;87.80;;;;;;2055199;28;20256;-81
2020/12/14 01:32:28;;;;;;;2.17;0.93;;;7.40;87.80;;;;;;2048155;28;20067;-81
2020/12/14 01:33:28;;;;;;;2.72;1.00;;;7.40;87.80;;;;;;2056236;28;20161;-81
2020/12/14 01:34:29;;;;;;;2.50;0.82;;;7.40;87.80;;;;;;2054094;28;20039;-81
2020/12/14 01:35:30;;;;;;;4.30;1.13;;;7.40;87.80;;;;;;2043206;29;20513;-80
2020/12/14 01:36:30;;;;;;;3.45;1.02;;;7.40;87.80;;;;;;2040389;28;20043;-81
2020/12/14 01:37:31;;;;;;;2.63;1.00;;;7.40;87.80;;;;;;2054056;28;20027;-81
2020/12/14 01:38:32;;;;;;;3.88;1.05;;;7.50;87.90;;;;;;2055991;28;20062;-81
2020/12/14 01:39:32;;;;;;;3.65;1.27;;;7.50;87.80;;;;;;2038886;29;20122;-80
2020/12/14 01:40:33;;;;;;;3.05;1.20;;;7.40;87.80;;;;;;2038692;28;20563;-81
2020/12/14 01:41:33;;;;;;;3.70;1.35;;;7.40;87.80;;;;;;2029179;29;20063;-81
2020/12/14 01:42:40;;;;;;;3.42;1.35;;;7.50;87.80;;;;;;2046085;29;20114;-81
2020/12/14 01:43:41;;;;;;;5.47;1.60;;;7.40;87.70;;;;;;2054975;28;20054;-81
2020/12/14 01:44:41;;;;;;;3.00;1.70;;;7.40;87.60;;;;;;2038069;29;20351;-80
2020/12/14 01:45:42;;;;;;;2.95;1.50;;;7.50;87.70;;;;;;2024482;29;20077;-81
2020/12/14 01:46:44;;;;;;;6.00;2.15;;;7.50;87.80;;;;;;2036863;29;20036;-81
2020/12/14 01:47:49;;;;;;;4.35;1.48;;;7.50;87.70;;;;;;2054733;28;20078;-81
2020/12/14 01:48:49;;;;;;;3.75;1.50;;;7.40;87.60;;;;;;2049649;28;20130;-81
2020/12/14 01:49:50;;;;;;;3.75;1.50;;;7.50;87.70;;;;;;2049481;28;20385;-81
2020/12/14 01:50:51;;;;;;;5.53;1.55;;;7.50;87.70;;;;;;2048624;29;20039;-81
2020/12/14 01:51:52;;;;;;;3.00;1.50;;;7.50;87.70;;;;;;2046135;28;20462;-81
2020/12/14 01:52:57;;;;;;;3.53;1.88;;;7.50;88.30;;;;;;2049277;29;20110;-81
2020/12/14 01:54:00;;;;;;;2.80;1.45;;;7.50;87.70;;;;;;2049349;28;20078;-81
2020/12/14 01:55:01;;;;;;;3.83;1.50;;;7.50;87.70;;;;;;2048331;28;20027;-81
2020/12/14 01:56:04;;;;;;;2.33;1.40;;;7.50;87.70;;;;;;2040018;29;20450;-81
2020/12/14 01:57:04;;;;;;;4.63;1.42;;;7.50;87.70;;;;;;2050976;28;20043;-81
2020/12/14 01:58:05;;;;;;;4.05;1.60;;;7.50;88.30;;;;;;2058040;28;20062;-81
2020/12/14 01:59:05;;;;;;;4.03;1.63;;;7.50;87.60;;;;;;2049029;28;20035;-81
2020/12/14 02:00:08;;;;;;;4.90;1.50;;;7.50;87.60;;;;;;2040816;29;20028;-81
2020/12/14 02:01:09;;;;;;;5.10;1.40;;;7.50;87.60;;;;;;2054817;28;20030;-81
2020/12/14 02:02:09;;;;;;;3.33;1.30;;;7.50;87.60;;;;;;2050124;28;20035;-81
2020/12/14 02:03:10;;;;;;;3.35;1.30;;;7.50;87.60;;;;;;2051343;28;20057;-81
2020/12/14 02:04:10;;;;;;;2.45;1.33;;;7.50;87.60;;;;;;2056669;28;20504;-81
2020/12/14 02:05:11;;;;;;;4.18;1.35;;;7.50;87.60;;;;;;2043258;28;20067;-81
2020/12/14 02:06:12;;;;;;;2.80;1.25;;;7.50;87.60;;;;;;2038765;29;20028;-81
2020/12/14 02:07:12;;;;;;;2.80;1.15;;;7.50;87.60;;;;;;2033539;29;20123;-81
2020/12/14 02:08:13;;;;;;;2.60;1.00;;;7.60;87.60;;;;;;2040198;28;20074;-81
2020/12/14 02:09:14;;;;;;;1.83;0.90;;;7.60;87.60;;;;;;2045146;29;20512;-81
2020/12/14 02:10:14;;;;;;;2.08;0.85;;;7.50;87.60;;;;;;2054901;28;20149;-81
2020/12/14 02:11:15;;;;;;;1.50;0.82;;;7.50;87.60;;;;;;2051208;28;20035;-81
2020/12/14 02:12:16;;;;;;;2.10;0.88;;;7.60;87.70;;;;;;2047035;28;20564;-81
2020/12/14 02:13:17;;;;;;;3.50;1.10;;;7.60;87.60;;;;;;2048651;28;20059;-82
2020/12/14 02:14:17;;;;;;;3.25;0.93;;;7.60;87.60;;;;;;2055205;28;20023;-82
2020/12/14 02:15:18;;;;;;;2.45;0.90;;;7.60;87.60;;;;;;2048863;28;20027;-81
2020/12/14 02:16:18;;;;;;;2.42;0.90;;;7.60;87.60;;;;;;2051979;28;20553;-81
2020/12/14 02:17:20;;;;;;;3.20;0.90;;;7.60;87.60;;;;;;2054224;28;20198;-81
2020/12/14 02:18:22;;;;;;;2.55;0.90;;;7.60;87.60;;;;;;2056093;28;20074;-81
2020/12/14 02:19:23;;;;;;;3.05;1.20;;;7.60;88.20;;;;;;2039921;28;20375;-81
2020/12/14 02:20:23;;;;;;;3.08;0.93;;;7.60;87.60;;;;;;2047673;28;20038;-81
2020/12/14 02:21:24;;;;;;;3.45;1.00;;;7.60;87.50;;;;;;2055397;28;20026;-81
2020/12/14 02:22:26;;;;;;;3.00;0.90;;;7.60;87.60;;;;;;2051475;28;20033;-80
2020/12/14 02:23:27;;;;;;;2.72;0.98;;;7.60;87.50;;;;;;2042768;29;20395;-81
2020/12/14 02:24:27;;;;;;;3.53;1.00;;;7.60;87.50;;;;;;2042042;28;20123;-81
2020/12/14 02:25:28;;;;;;;2.80;0.93;;;7.60;87.50;;;;;;2043178;28;20043;-80
2020/12/14 02:26:28;;;;;;;4.03;1.15;;;7.60;87.50;;;;;;2048440;28;20047;-81
2020/12/14 02:27:31;;;;;;;3.15;1.05;;;7.60;87.50;;;;;;2056150;28;20261;-81
2020/12/14 02:28:31;;;;;;;2.97;1.10;;;7.60;87.50;;;;;;2054541;28;20075;-81
2020/12/14 02:29:32;;;;;;;5.22;1.10;;;7.60;87.50;;;;;;2042719;29;21598;-82
2020/12/14 02:30:33;;;;;;;3.70;1.17;;;7.60;87.40;;;;;;2040564;29;20032;-81
2020/12/14 02:31:33;;;;;;;2.67;0.93;;;7.60;87.40;;;;;;2039861;29;20039;-81
2020/12/14 02:32:34;;;;;;;5.05;1.33;;;7.60;87.40;;;;;;2043474;28;20462;-82
2020/12/14 02:33:35;;;;;;;2.42;0.80;;;7.60;87.40;;;;;;2056473;28;20035;-81
2020/12/14 02:34:35;;;;;;;1.92;0.82;;;7.60;87.50;;;;;;2036433;29;20040;-80
2020/12/14 02:35:36;;;;;;;2.92;1.02;;;7.60;87.50;;;;;;2030401;29;20028;-81
2020/12/14 02:36:37;;;;;;;3.10;0.90;;;7.60;87.50;;;;;;2049033;28;20126;-81
2020/12/14 02:37:37;;;;;;;3.13;1.05;;;7.60;87.50;;;;;;2056939;28;20027;-81
2020/12/14 02:38:38;;;;;;;2.67;0.90;;;7.60;87.50;;;;;;2055534;28;20034;-81
2020/12/14 02:39:39;;;;;;;3.03;0.93;;;7.60;87.50;;;;;;2054310;28;20031;-81
2020/12/14 02:40:40;;;;;;;2.40;1.00;;;7.60;87.50;;;;;;2048299;28;20138;-81
2020/12/14 02:41:41;;;;;;;2.33;1.00;;;7.60;87.50;;;;;;2038311;28;20413;-82
2020/12/14 02:42:42;;;;;;;2.17;0.82;;;7.70;87.60;;;;;;2041065;29;20028;-82
2020/12/14 02:43:42;;;;;;;2.97;0.90;;;7.60;87.50;;;;;;2039591;29;20028;-81
2020/12/14 02:44:44;;;;;;;1.92;0.80;;;7.70;87.50;;;;;;2049364;29;20494;-81
2020/12/14 02:45:45;;;;;;;2.42;0.90;;;7.60;87.50;;;;;;2045160;29;21503;-80
2020/12/14 02:46:46;;;;;;;3.38;1.10;;;7.70;87.60;;;;;;2046824;28;20047;-80
2020/12/14 02:47:46;;;;;;;2.72;1.08;;;7.60;87.60;;;;;;2049420;28;20026;-81
2020/12/14 02:48:47;;;;;;;2.38;1.10;;;7.70;87.60;;;;;;2053590;28;20061;-81
2020/12/14 02:49:47;;;;;;;1.88;0.90;;;7.60;87.60;;;;;;2057301;28;20081;-81
2020/12/14 02:50:48;;;;;;;4.60;1.00;;;7.60;87.60;;;;;;2055624;28;20246;-81
2020/12/14 02:51:49;;;;;;;1.77;0.80;;;7.60;87.60;;;;;;2057049;28;20027;-81
2020/12/14 02:52:49;;;;;;;2.53;0.95;;;7.60;87.60;;;;;;2055807;28;20155;-81
2020/12/14 02:53:50;;;;;;;2.83;0.95;;;7.60;87.60;;;;;;2055280;28;20372;-81
2020/12/14 02:54:50;;;;;;;4.25;1.10;;;7.60;87.70;;;;;;2048431;28;20031;-81
2020/12/14 02:55:51;;;;;;;2.20;0.85;;;7.60;87.70;;;;;;2048518;29;20749;-81
2020/12/14 02:56:52;;;;;;;3.15;0.95;;;7.70;87.80;;;;;;2052316;28;20441;-81
2020/12/14 02:57:52;;;;;;;2.25;0.80;;;7.60;87.80;;;;;;2051754;28;20140;-81
2020/12/14 02:58:53;;;;;;;2.05;0.80;;;7.60;87.80;;;;;;2051844;28;20026;-81
2020/12/14 02:59:53;;;;;;;1.88;0.75;;;7.60;87.90;;;;;;2038503;28;22285;-81
2020/12/14 03:00:54;;;;;;;2.10;0.90;;;7.60;87.90;;;;;;2024007;29;20080;-81
2020/12/14 03:01:55;;;;;;;1.80;0.80;;;7.60;88.00;;;;;;2039197;29;20020;-81
2020/12/14 03:02:56;;;;;;;2.33;0.80;;;7.60;88.00;;;;;;2041375;29;20031;-81
2020/12/14 03:03:56;;;;;;;2.50;0.80;;;7.60;88.10;;;;;;2054040;28;20076;-81
2020/12/14 03:04:57;;;;;;;3.50;0.90;;;7.60;88.20;;;;;;2048421;28;20514;-81
2020/12/14 03:05:57;;;;;;;2.35;0.90;;;7.60;88.20;;;;;;2045775;28;20039;-81
2020/12/14 03:06:58;;;;;;;3.33;0.90;;;7.60;88.20;;;;;;2053366;28;20038;-81
2020/12/14 03:07:59;;;;;;;2.25;1.05;;;7.50;88.20;;;;;;2051146;28;20019;-81
2020/12/14 03:09:00;;;;;;;1.80;0.85;;;7.50;88.30;;;;;;2052664;28;20034;-81
2020/12/14 03:10:00;;;;;;;1.35;0.73;;;7.50;88.30;;;;;;2048713;28;20433;-81
2020/12/14 03:11:01;;;;;;;1.77;0.82;;;7.50;88.40;;;;;;2048275;28;20486;-81
2020/12/14 03:12:02;;;;;;;3.30;0.95;;;7.50;88.50;;;;;;2051813;28;20114;-81
2020/12/14 03:13:02;;;;;;;2.67;0.80;;;7.50;88.50;;;;;;2050413;28;20522;-81
2020/12/14 03:14:03;;;;;;;2.10;0.95;;;7.50;88.50;;;;;;2049141;28;20035;-81
2020/12/14 03:15:04;;;;;;;1.80;0.80;;;7.50;88.60;;;;;;2054712;28;20038;-81
2020/12/14 03:16:05;;;;;;;3.33;1.08;;;7.50;88.60;;;;;;2051200;28;20501;-81
2020/12/14 03:17:06;;;;;;;3.08;1.08;;;7.50;88.60;;;;;;2049904;28;20070;-81
2020/12/14 03:18:06;;;;;;;2.65;0.82;;;7.50;88.70;;;;;;2050351;28;20027;-81
2020/12/14 03:19:07;;;;;;;2.72;0.90;;;7.50;88.70;;;;;;2049203;28;20032;-81
2020/12/14 03:20:08;;;;;;;2.03;1.10;;;7.50;88.70;;;;;;2049193;28;20028;-81
2020/12/14 03:21:09;;;;;;;2.38;1.02;;;7.50;88.70;;;;;;2055941;28;20090;-81
2020/12/14 03:22:09;;;;;;;2.15;0.80;;;7.50;88.70;;;;;;2053634;28;20090;-80
2020/12/14 03:23:10;;;;;;;2.22;1.00;;;7.50;88.80;;;;;;2043456;28;20035;-81
2020/12/14 03:28:04;;;;;;;1.98;0.90;;;7.50;88.80;;;;;;2054795;28;20500;-81
2020/12/14 03:29:05;;;;;;;2.60;0.93;;;7.50;88.70;;;;;;2055872;28;20049;-81
2020/12/14 03:30:06;;;;;;;3.88;0.88;;;7.50;88.70;;;;;;2056987;28;20105;-81
2020/12/14 03:31:06;;;;;;;3.05;1.33;;;7.50;88.70;;;;;;2045995;28;20074;-81
2020/12/14 03:32:07;;;;;;;2.90;1.00;;;7.50;88.80;;;;;;2048431;28;20030;-81
2020/12/14 03:33:08;;;;;;;2.60;1.05;;;7.50;88.80;;;;;;2055594;28;20034;-81
2020/12/14 03:34:08;;;;;;;2.10;1.08;;;7.50;88.90;;;;;;2054892;28;20026;-81
2020/12/14 03:35:09;;;;;;;1.75;0.90;;;7.50;89.00;;;;;;2063813;28;20121;-80
2020/12/14 03:36:09;;;;;;;2.33;0.98;;;7.50;89.00;;;;;;2052809;28;20125;-80
2020/12/14 03:37:10;;;;;;;2.75;1.13;;;7.50;89.10;;;;;;2044870;29;20034;-81
2020/12/14 03:38:11;;;;;;;2.42;0.98;;;7.50;89.70;;;;;;2041151;29;20059;-81
2020/12/14 03:39:12;;;;;;;1.90;0.88;;;7.50;89.20;;;;;;2053150;28;20023;-82
2020/12/14 03:40:15;;;;;;;2.05;1.00;;;7.50;89.30;;;;;;2051590;28;20070;-81
2020/12/14 03:41:16;;;;;;;3.88;1.10;;;7.50;89.40;;;;;;2046727;28;20027;-81
2020/12/14 03:42:17;;;;;;;2.50;1.20;;;7.50;89.40;;;;;;2047096;28;20030;-81
2020/12/14 03:43:18;;;;;;;2.17;0.90;;;7.50;89.60;;;;;;2039440;29;20064;-82
2020/12/14 03:44:18;;;;;;;3.75;0.98;;;7.50;89.60;;;;;;2049094;29;20066;-81
2020/12/14 03:45:19;;;;;;;1.98;0.90;;;7.50;89.80;;;;;;2055730;28;20035;-81
2020/12/14 03:46:23;;;;;;;2.78;0.90;;;7.40;89.70;;;;;;2050449;28;20050;-82
2020/12/14 03:47:30;;;;;;;2.90;1.10;;;7.40;89.80;;;;;;2047209;29;20051;-81
2020/12/14 03:48:31;;;;;;;3.50;1.23;;;7.40;90.00;;;;;;2042337;29;20059;-82
2020/12/14 03:49:31;;;;;;;2.90;1.20;;;7.50;90.00;;;;;;2048883;28;20035;-81
2020/12/14 03:50:33;;;;;;;3.03;1.15;;;7.40;90.00;;;;;;2062557;28;20070;-81
2020/12/14 03:51:33;;;;;;;1.98;0.93;;;7.40;90.10;;;;;;2057227;29;20032;-80
2020/12/14 03:52:34;;;;;;;3.03;1.10;;;7.40;90.10;;;;;;2038836;29;20032;-80
2020/12/14 03:53:34;;;;;;;3.90;1.20;;;7.40;90.10;;;;;;2046918;29;20026;-81
2020/12/14 03:54:35;;;;;;;3.03;1.20;;;7.40;90.30;;;;;;2055966;28;20389;-81
2020/12/14 03:55:36;;;;;;;2.22;1.08;;;7.30;90.20;;;;;;2044627;29;20046;-80
2020/12/14 03:56:36;;;;;;;3.25;1.23;;;7.40;90.30;;;;;;2039560;29;20043;-80
2020/12/14 03:57:37;;;;;;;2.13;0.90;;;7.30;90.30;;;;;;2054990;28;20051;-81
2020/12/14 03:58:38;;;;;;;4.18;1.00;;;7.30;90.30;;;;;;2063262;28;20034;-81
2020/12/14 03:59:38;;;;;;;3.15;0.90;;;7.30;90.40;;;;;;2057153;28;20505;-81
2020/12/14 04:00:39;;;;;;;1.90;1.02;;;7.30;90.40;;;;;;2057564;28;20049;-80
2020/12/14 04:01:39;;;;;;;2.13;0.98;;;7.30;90.40;;;;;;2048581;28;20628;-81
2020/12/14 04:02:40;;;;;;;2.25;0.90;;;7.30;90.50;;;;;;2053654;28;20400;-82
2020/12/14 04:03:40;;;;;;;2.75;1.25;;;7.30;90.50;;;;;;2051891;29;20111;-80
2020/12/14 04:04:41;;;;;;;1.55;0.80;;;7.30;90.60;;;;;;2054132;28;20036;-80
2020/12/14 04:05:42;;;;;;;2.00;1.00;;;7.30;90.60;;;;;;2058946;28;20473;-81
2020/12/14 04:06:43;;;;;;;1.77;1.00;;;7.30;90.60;;;;;;2041267;28;20055;-81
2020/12/14 04:07:44;;;;;;;2.45;1.00;;;7.30;90.60;;;;;;2041725;28;20441;-81
2020/12/14 04:08:45;;;;;;;1.00;0.75;;;7.30;90.70;;;;;;2050371;28;20038;-81
2020/12/14 04:09:46;;;;;;;2.60;0.95;;;7.30;90.70;;;;;;2042154;28;20038;-81
2020/12/14 04:10:47;;;;;;;2.20;0.98;;;7.30;90.70;;;;;;2040161;28;20486;-81
2020/12/14 04:11:47;;;;;;;3.25;0.93;;;7.30;90.70;;;;;;2042306;29;20081;-82
2020/12/14 04:12:49;;;;;;;1.52;0.90;;;7.30;90.80;;;;;;2047387;29;20576;-81
2020/12/14 04:13:50;;;;;;;2.90;1.00;;;7.30;90.80;;;;;;2054087;28;20030;-81
2020/12/14 04:14:51;;;;;;;1.90;1.00;;;7.20;90.80;;;;;;2049808;28;20031;-81
2020/12/14 04:15:51;;;;;;;2.10;1.08;;;7.30;90.90;;;;;;2054290;28;20428;-81
2020/12/14 04:16:52;;;;;;;1.48;0.90;;;7.30;90.90;;;;;;2049809;28;20159;-81
2020/12/14 04:17:52;;;;;;;1.50;0.90;;;7.30;90.90;;;;;;2048537;28;20039;-81
2020/12/14 04:18:54;;;;;;;2.17;0.90;;;7.30;90.90;;;;;;2054857;28;20351;-81
2020/12/14 04:19:55;;;;;;;2.05;0.93;;;7.20;90.90;;;;;;2058505;28;20028;-81
2020/12/14 04:20:56;;;;;;;2.33;1.00;;;7.30;90.90;;;;;;2060794;28;20509;-81
2020/12/14 04:21:59;;;;;;;2.28;0.90;;;7.30;91.00;;;;;;2055915;28;20038;-80
2020/12/14 04:23:00;;;;;;;1.90;0.95;;;7.20;91.00;;;;;;2040162;29;20039;-81
2020/12/14 04:24:01;;;;;;;1.98;0.90;;;7.30;91.00;;;;;;2038408;29;20059;-80
2020/12/14 04:25:02;;;;;;;2.53;0.85;;;7.30;91.00;;;;;;2048757;28;20036;-81
2020/12/14 04:26:04;;;;;;;1.88;0.73;;;7.30;91.00;;;;;;2048769;28;20039;-80
2020/12/14 04:27:05;;;;;;;4.00;1.10;;;7.30;91.10;;;;;;2052007;28;20257;-80
2020/12/14 04:28:05;;;;;;;3.42;1.08;;;7.30;91.10;;;;;;2041181;29;20059;-81
2020/12/14 04:29:06;;;;;;;3.17;1.63;;;7.30;91.10;;;;;;2043041;29;20067;-81
2020/12/14 04:30:07;;;;;;;3.75;1.00;;;7.30;91.10;;;;;;2053843;28;20027;-80
2020/12/14 04:31:08;;;;;;;2.38;1.35;;;7.30;91.10;;;;;;2046045;28;20039;-80
2020/12/14 04:32:08;;;;;;;1.90;1.00;;;7.30;91.20;;;;;;2042241;28;21662;-80
2020/12/14 04:33:09;;;;;;;1.90;1.00;;;7.20;91.10;;;;;;2049372;28;20153;-80
2020/12/14 04:34:09;;;;;;;3.17;1.10;;;7.30;91.20;;;;;;2044671;28;20035;-81
2020/12/14 04:35:10;;;;;;;1.25;0.90;;;7.30;91.20;;;;;;2048384;28;20035;-80
2020/12/14 04:36:13;;;;;;;2.03;1.02;;;7.30;91.20;;;;;;2052178;28;20485;-81
2020/12/14 04:37:15;;;;;;;2.05;1.00;;;7.30;91.20;;;;;;2056165;28;20027;-80
2020/12/14 04:38:15;;;;;;;1.75;1.00;;;7.30;91.30;;;;;;2054677;28;20023;-81
2020/12/14 04:39:17;;;;;;;4.63;1.10;;;7.30;91.30;;;;;;2054564;28;20449;-82
2020/12/14 04:40:18;;;;;;;3.30;1.10;;;7.30;91.30;;;;;;2056936;28;20031;-81
2020/12/14 04:41:22;;;;;;;3.00;1.10;;;7.30;91.30;;;;;;2055524;28;20575;-80
2020/12/14 04:42:23;;;;;;;2.03;0.80;;;7.30;91.30;;;;;;2046395;29;20046;-81
2020/12/14 04:43:24;;;;;;;2.60;1.05;;;7.30;91.30;;;;;;2047961;28;20026;-80
2020/12/14 04:44:25;;;;;;;1.92;1.00;;;7.30;91.30;;;;;;2047666;28;20402;-81
2020/12/14 04:45:27;;;;;;;1.67;0.93;;;7.30;91.40;;;;;;2039756;28;20027;-81
2020/12/14 04:46:29;;;;;;;2.33;1.15;;;7.30;91.40;;;;;;2056119;28;20030;-81
2020/12/14 04:47:30;;;;;;;3.55;1.20;;;7.30;91.40;;;;;;2056576;28;20125;-81
2020/12/14 04:48:31;;;;;;;2.85;1.10;;;7.30;91.40;;;;;;2056252;28;20440;-81
2020/12/14 04:49:33;;;;;;;3.38;1.33;;;7.30;91.50;;;;;;2050685;28;20050;-81
2020/12/14 04:50:34;;;;;;;1.90;1.17;;;7.30;91.40;;;;;;2050239;28;20031;-80
2020/12/14 04:51:38;;;;;;;1.83;1.00;;;7.30;91.40;;;;;;2049682;28;20035;-80
2020/12/14 04:52:41;;;;;;;1.92;0.90;;;7.30;91.50;;;;;;2052730;28;20054;-80
2020/12/14 04:53:45;;;;;;;3.25;1.10;;;7.40;91.50;;;;;;2049662;28;20031;-81
2020/12/14 04:54:48;;;;;;;2.15;1.10;;;7.30;91.50;;;;;;2049089;28;20034;-81
2020/12/14 04:55:48;;;;;;;2.95;0.98;;;7.30;91.50;;;;;;2052915;28;20029;-81
2020/12/14 04:56:53;;;;;;;2.42;1.10;;;7.30;91.50;;;;;;2054935;28;20030;-81
2020/12/14 04:57:54;;;;;;;2.90;1.23;;;7.30;91.50;;;;;;2064256;28;20032;-81
2020/12/14 04:58:57;;;;;;;2.35;1.00;;;7.30;91.50;;;;;;2048943;28;20123;-80
2020/12/14 04:59:57;;;;;;;2.50;1.02;;;7.30;91.60;;;;;;2049472;28;20402;-80
2020/12/14 05:00:58;;;;;;;2.00;1.00;;;7.30;91.60;;;;;;2051853;28;20031;-81
2020/12/14 05:02:05;;;;;;;3.00;1.13;;;7.30;91.60;;;;;;2053847;28;20390;-81
2020/12/14 05:03:06;;;;;;;2.22;1.10;;;7.30;91.60;;;;;;2053655;28;20026;-81
2020/12/14 05:04:06;;;;;;;2.85;0.90;;;7.30;91.60;;;;;;2047986;28;20458;-81
2020/12/14 05:05:11;;;;;;;1.65;0.85;;;7.30;91.70;;;;;;2050623;28;20477;-81
2020/12/14 05:06:12;;;;;;;4.50;1.15;;;7.30;91.70;;;;;;2050777;28;20143;-80
2020/12/14 05:07:15;;;;;;;2.30;1.27;;;7.30;91.70;;;;;;2048248;28;20066;-80
2020/12/14 05:08:26;;;;;;;2.08;0.98;;;7.40;91.70;;;;;;2036093;29;20082;-80
2020/12/14 05:09:27;;;;;;;1.85;1.00;;;7.30;92.00;;;;;;2042265;29;20031;-80
2020/12/14 05:10:29;;;;;;;1.58;0.73;;;7.30;91.70;;;;;;2043304;29;20067;-80
2020/12/14 05:11:33;;;;;;;2.75;1.10;;;7.30;91.80;;;;;;2045565;28;20561;-80
2020/12/14 05:12:41;;;;;;;1.83;1.02;;;7.40;91.80;;;;;;2048803;28;20030;-80
2020/12/14 05:13:43;;;;;;;2.92;1.05;;;7.30;91.80;;;;;;2053246;28;20111;-80
2020/12/14 05:14:43;;;;;;;1.88;0.93;;;7.30;91.80;;;;;;2052711;28;20113;-80
2020/12/14 05:15:44;;;;;;;2.13;0.90;;;7.40;91.80;;;;;;2051319;28;20031;-80
2020/12/14 05:16:45;;;;;;;1.73;1.02;;;7.30;91.80;;;;;;2043007;28;20024;-81
2020/12/14 05:17:50;;;;;;;2.15;0.95;;;7.30;91.80;;;;;;2045133;28;20402;-80
2020/12/14 05:18:51;;;;;;;2.83;1.13;;;7.40;91.90;;;;;;2045846;29;20027;-80
2020/12/14 05:19:52;;;;;;;1.98;1.02;;;7.40;91.90;;;;;;2045993;28;20035;-81
2020/12/14 05:21:03;;;;;;;2.70;1.02;;;7.40;91.90;;;;;;2046513;28;20034;-81
2020/12/14 05:22:04;;;;;;;1.75;1.10;;;7.40;91.90;;;;;;2044049;29;20028;-81
2020/12/14 05:23:10;;;;;;;2.08;1.17;;;7.40;91.90;;;;;;2042671;28;20043;-81
2020/12/14 05:24:17;;;;;;;3.22;1.30;;;7.40;91.90;;;;;;2047488;28;20066;-81
2020/12/14 05:25:18;;;;;;;1.95;1.02;;;7.40;91.90;;;;;;2047631;28;20031;-81
2020/12/14 05:26:29;;;;;;;2.78;1.23;;;7.40;91.90;;;;;;2041831;29;20382;-81
2020/12/14 05:27:34;;;;;;;2.58;1.10;;;7.40;91.90;;;;;;2048218;28;20051;-81